Belleville, Indiana
Current Conditions -  °F | °C
As of 3:54 AM on Sunday 26 Oct 2014 (Local Time) from KIND Reporting Station
Clear Clear  
Wind Chill: 45°   Ceiling: Unl
Heat Index: 49°   Visibility: 10mi
Dew Point: 33°   Wind: 9mph
Humidity: 54%   Direction: 320°NW
Pressure: 29.98"   Gusts: NA
Location:  39.6566°N, 86.5049°W
Report Text: KIND 260754Z AUTO 32008KT 10SM CLR 09/01 A2998 RMK AO2 SLP150 T00940006 TSNO
Loading
Personal Weather Stations






























Interactive Weather Map
Tropical Storm Tracking
New forecast layout! Learn more

10-Day Weather Forecast

Advertisements
Track Severe Weather on mobile